createdAt,value
2023-04-25T00:01:06.426Z,6.23
2023-04-25T00:03:34.907Z,7.83
2023-04-25T00:06:04.667Z,5.20
2023-04-25T00:08:32.890Z,5.93
2023-04-25T00:11:01.477Z,5.27
2023-04-25T00:13:30.494Z,7.63
2023-04-25T00:15:58.998Z,4.60
2023-04-25T00:18:29.678Z,5.77
2023-04-25T00:20:58.116Z,5.70
2023-04-25T00:23:27.790Z,6.40
2023-04-25T00:25:55.863Z,6.13
2023-04-25T00:28:23.958Z,6.80
2023-04-25T00:30:52.260Z,5.17
2023-04-25T00:33:20.445Z,5.87
2023-04-25T00:35:48.579Z,4.97
2023-04-25T00:38:16.683Z,7.13
2023-04-25T00:40:46.175Z,9.00
2023-04-25T00:43:14.285Z,7.57
2023-04-25T00:45:42.685Z,8.40
2023-04-25T00:48:10.908Z,6.00
2023-04-25T00:50:39.282Z,6.20
2023-04-25T00:53:08.543Z,6.20
2023-04-25T00:55:37.180Z,6.20
2023-04-25T00:58:06.694Z,6.10
2023-04-25T01:00:35.807Z,6.33
2023-04-25T01:03:04.831Z,6.43
2023-04-25T01:05:33.904Z,7.27
2023-04-25T01:08:02.355Z,6.93
2023-04-25T01:10:30.613Z,8.37
2023-04-25T01:13:00.000Z,7.97
2023-04-25T01:15:29.711Z,6.40
2023-04-25T01:18:01.880Z,8.03
2023-04-25T01:20:33.740Z,6.30
2023-04-25T01:23:04.639Z,6.80
2023-04-25T01:25:33.643Z,8.27
2023-04-25T01:28:01.876Z,7.87
2023-04-25T01:30:30.850Z,7.07
2023-04-25T01:32:59.516Z,7.00
2023-04-25T01:35:28.003Z,7.00
2023-04-25T01:37:56.193Z,6.90
2023-04-25T01:40:27.019Z,6.40
2023-04-25T01:42:55.622Z,9.47
2023-04-25T01:45:24.148Z,8.70
2023-04-25T01:47:52.303Z,7.93
2023-04-25T01:50:21.426Z,7.00
2023-04-25T01:52:50.304Z,8.33
2023-04-25T01:55:18.604Z,6.13
2023-04-25T01:57:48.066Z,6.77
2023-04-25T02:00:16.658Z,7.47
2023-04-25T02:02:45.014Z,7.57
2023-04-25T02:05:13.250Z,6.67
2023-04-25T02:07:41.394Z,6.90
2023-04-25T02:10:10.715Z,7.07
2023-04-25T02:12:38.825Z,6.63
2023-04-25T02:15:09.800Z,7.67
2023-04-25T02:17:38.700Z,7.43
2023-04-25T02:20:08.317Z,8.73
2023-04-25T02:22:36.477Z,9.10
2023-04-25T02:25:06.038Z,7.80
2023-04-25T02:27:34.221Z,8.17
2023-04-25T02:30:02.396Z,9.50
2023-04-25T02:32:31.893Z,8.97
2023-04-25T02:35:04.665Z,9.43
2023-04-25T02:37:32.866Z,7.53
2023-04-25T02:40:01.489Z,7.53
2023-04-25T02:42:29.933Z,7.60
2023-04-25T02:44:58.040Z,8.67
2023-04-25T02:47:26.377Z,7.57
2023-04-25T02:49:55.958Z,8.63
2023-04-25T02:52:24.193Z,9.37
2023-04-25T02:54:52.354Z,9.10
2023-04-25T02:57:20.561Z,8.97
2023-04-25T02:59:48.689Z,9.83
2023-04-25T03:02:16.871Z,7.33
2023-04-25T03:04:45.084Z,9.27
2023-04-25T03:07:14.599Z,8.90
2023-04-25T03:09:42.781Z,7.53
2023-04-25T03:12:11.153Z,8.53
2023-04-25T03:14:39.277Z,8.00
2023-04-25T03:17:07.328Z,10.40
2023-04-25T03:19:35.441Z,7.67
2023-04-25T03:22:03.555Z,10.07
2023-04-25T03:24:33.011Z,9.83
2023-04-25T03:27:01.444Z,9.00
2023-04-25T03:29:29.745Z,8.90
2023-04-25T03:31:57.869Z,9.40
2023-04-25T03:34:26.942Z,8.93
2023-04-25T03:36:55.052Z,9.33
2023-04-25T03:39:23.162Z,8.60
2023-04-25T03:41:53.038Z,9.93
2023-04-25T03:44:21.124Z,10.00
2023-04-25T03:46:49.193Z,10.93
2023-04-25T03:49:19.588Z,8.60
2023-04-25T03:51:47.800Z,8.10
2023-04-25T03:54:15.956Z,10.43
2023-04-25T03:56:44.075Z,9.20
2023-04-25T03:59:13.539Z,11.23
2023-04-25T04:01:41.608Z,8.57
2023-04-25T04:04:09.901Z,10.60
2023-04-25T04:06:38.900Z,10.03
2023-04-25T04:09:10.845Z,10.37
2023-04-25T04:11:39.363Z,8.70
2023-04-25T04:14:07.610Z,9.07
2023-04-25T04:16:37.176Z,9.63
2023-04-25T04:19:05.421Z,10.80
2023-04-25T04:21:34.483Z,7.73
2023-04-25T04:24:02.818Z,8.10
2023-04-25T04:26:32.927Z,11.17
2023-04-25T04:29:01.204Z,10.63
2023-04-25T04:31:29.391Z,7.47
2023-04-25T04:33:58.896Z,8.40
2023-04-25T04:36:27.681Z,8.23
2023-04-25T04:38:57.331Z,8.63
2023-04-25T04:41:25.494Z,8.87
2023-04-25T04:43:54.166Z,9.03
2023-04-25T04:46:22.595Z,9.47
2023-04-25T04:48:50.874Z,7.07
2023-04-25T04:51:20.322Z,9.17
2023-04-25T04:53:48.749Z,7.87
2023-04-25T04:56:17.244Z,6.37
2023-04-25T04:58:45.647Z,9.77
2023-04-25T05:01:14.436Z,8.77
2023-04-25T05:03:42.722Z,8.50
2023-04-25T05:06:10.909Z,6.90
2023-04-25T05:08:40.747Z,11.90
2023-04-25T05:11:08.847Z,11.00
2023-04-25T05:13:36.948Z,7.30
2023-04-25T05:16:05.885Z,7.70
2023-04-25T05:18:34.053Z,8.70
2023-04-25T05:21:02.280Z,15.03
2023-04-25T05:23:32.142Z,11.37
2023-04-25T05:26:03.247Z,8.40
2023-04-25T05:28:31.530Z,9.17
2023-04-25T05:31:00.019Z,7.70
2023-04-25T05:33:28.119Z,8.40
2023-04-25T05:35:56.208Z,7.37
2023-04-25T05:38:26.644Z,8.00
2023-04-25T05:40:54.719Z,12.30
2023-04-25T05:43:24.199Z,8.50
2023-04-25T05:45:52.402Z,12.37
2023-04-25T05:48:20.560Z,9.97
2023-04-25T05:50:48.663Z,9.07
2023-04-25T05:53:16.984Z,9.57
2023-04-25T05:55:45.253Z,11.10
2023-04-25T05:58:13.392Z,9.87
2023-04-25T06:00:43.282Z,9.17
2023-04-25T06:03:11.911Z,9.00
2023-04-25T06:05:40.414Z,8.30
2023-04-25T06:08:08.580Z,10.70
2023-04-25T06:10:36.727Z,8.47
2023-04-25T06:13:05.929Z,10.13
2023-04-25T06:15:34.253Z,7.17
2023-04-25T06:18:04.038Z,10.67
2023-04-25T06:20:32.226Z,10.57
2023-04-25T06:23:00.378Z,6.63
2023-04-25T06:25:28.531Z,7.77
2023-04-25T06:27:56.684Z,10.17
2023-04-25T06:30:26.666Z,9.00
2023-04-25T06:32:55.240Z,10.20
2023-04-25T06:35:24.776Z,8.20
2023-04-25T06:37:52.899Z,8.03
2023-04-25T06:40:21.019Z,6.77
2023-04-25T06:42:49.093Z,7.87
2023-04-25T06:45:17.525Z,7.17
2023-04-25T06:47:45.956Z,7.40
2023-04-25T06:50:14.152Z,7.77
2023-04-25T06:52:43.566Z,8.83
2023-04-25T06:55:11.940Z,8.50
2023-04-25T06:57:40.116Z,7.37
2023-04-25T07:00:10.524Z,6.13
2023-04-25T07:02:38.823Z,8.97
2023-04-25T07:05:07.577Z,6.87
2023-04-25T07:07:35.712Z,6.43
2023-04-25T07:10:06.354Z,8.23
2023-04-25T07:12:34.454Z,11.53
2023-04-25T07:15:06.762Z,9.33
2023-04-25T07:17:35.710Z,8.27
2023-04-25T07:20:06.997Z,6.67
2023-04-25T07:22:35.261Z,8.43
2023-04-25T07:25:05.273Z,9.40
2023-04-25T07:27:33.451Z,5.83
2023-04-25T07:30:01.536Z,9.50
2023-04-25T07:32:29.637Z,7.37
2023-04-25T07:34:57.844Z,7.30
2023-04-25T07:37:26.370Z,6.17
2023-04-25T07:39:54.410Z,7.60
2023-04-25T07:42:23.804Z,13.00
2023-04-25T07:44:52.636Z,8.20
2023-04-25T07:47:21.188Z,9.27
2023-04-25T07:49:49.878Z,7.03
2023-04-25T07:52:17.957Z,7.93
2023-04-25T07:54:46.245Z,8.97
2023-04-25T07:57:14.966Z,7.63
2023-04-25T07:59:44.826Z,6.70
2023-04-25T08:02:13.076Z,7.37
2023-04-25T08:04:41.653Z,7.17
2023-04-25T08:07:10.537Z,8.37
2023-04-25T08:09:38.724Z,5.17
2023-04-25T08:12:07.357Z,6.97
2023-04-25T08:14:38.169Z,5.97
2023-04-25T08:17:07.921Z,7.90
2023-04-25T08:19:36.073Z,4.23
2023-04-25T08:22:04.376Z,5.50
2023-04-25T08:24:32.428Z,3.87
2023-04-25T08:27:01.594Z,4.93
2023-04-25T08:29:29.671Z,5.80
2023-04-25T08:31:57.786Z,4.83
2023-04-25T08:34:27.509Z,5.77
2023-04-25T08:36:55.613Z,5.03
2023-04-25T08:39:23.666Z,5.00
2023-04-25T08:41:53.595Z,7.17
2023-04-25T08:44:24.538Z,6.57
2023-04-25T08:46:54.364Z,6.37
2023-04-25T08:49:23.000Z,7.27
2023-04-25T08:51:58.258Z,4.27
2023-04-25T08:54:35.593Z,5.17
2023-04-25T08:57:06.277Z,6.67
2023-04-25T08:59:36.558Z,5.53
2023-04-25T09:02:06.029Z,5.27
2023-04-25T09:04:34.303Z,4.73
2023-04-25T09:07:04.739Z,7.17
2023-04-25T09:09:32.846Z,8.60
2023-04-25T09:12:02.555Z,7.07
2023-04-25T09:14:30.886Z,6.03
2023-04-25T09:17:08.655Z,8.97
2023-04-25T09:19:41.701Z,5.40
2023-04-25T09:22:11.771Z,6.37
2023-04-25T09:24:42.591Z,9.07
2023-04-25T09:27:12.979Z,5.27
2023-04-25T09:29:43.060Z,11.57
2023-04-25T09:32:19.554Z,7.33
2023-04-25T09:34:51.627Z,8.87
2023-04-25T09:37:22.968Z,9.57
2023-04-25T09:39:53.403Z,7.93
2023-04-25T09:42:25.937Z,8.60
2023-04-25T09:44:56.042Z,11.03
2023-04-25T09:47:27.607Z,11.70
2023-04-25T09:49:57.048Z,6.87
2023-04-25T09:52:27.547Z,12.27
2023-04-25T09:54:55.615Z,8.10
2023-04-25T09:57:25.985Z,6.80
2023-04-25T09:59:56.485Z,8.83
2023-04-25T10:02:26.821Z,8.97
2023-04-25T10:04:57.210Z,8.40
2023-04-25T10:07:32.039Z,8.17
2023-04-25T10:10:04.709Z,8.27
2023-04-25T10:12:34.921Z,8.80
2023-04-25T10:15:05.079Z,9.37
2023-04-25T10:17:36.108Z,13.97
2023-04-25T10:20:08.767Z,11.87
2023-04-25T10:22:43.165Z,9.07
2023-04-25T10:25:12.686Z,10.40
2023-04-25T10:27:41.933Z,10.20
2023-04-25T10:30:13.702Z,10.67
2023-04-25T10:32:43.940Z,10.60
2023-04-25T10:35:17.425Z,11.67
2023-04-25T10:38:06.675Z,10.83
2023-04-25T10:40:35.400Z,10.00
2023-04-25T10:43:41.286Z,11.93
2023-04-25T10:46:20.779Z,10.43
2023-04-25T10:48:51.388Z,8.70
2023-04-25T10:51:26.185Z,12.57
2023-04-25T10:54:03.943Z,9.80
2023-04-25T10:56:34.946Z,10.07
2023-04-25T10:59:09.131Z,11.93
2023-04-25T11:01:42.873Z,10.20
2023-04-25T11:04:23.441Z,12.40
2023-04-25T11:07:08.050Z,11.73
2023-04-25T11:09:42.104Z,11.87
2023-04-25T11:12:12.768Z,10.37
2023-04-25T11:17:14.602Z,9.37
2023-04-25T11:19:42.850Z,10.70
2023-04-25T11:22:12.770Z,9.57
2023-04-25T11:24:42.707Z,11.17
2023-04-25T11:27:11.060Z,8.77
2023-04-25T11:29:39.139Z,11.87
2023-04-25T11:32:07.543Z,7.43
2023-04-25T11:34:36.400Z,10.00
2023-04-25T11:37:06.339Z,14.50
2023-04-25T11:39:34.381Z,9.87
2023-04-25T11:42:07.711Z,9.07
2023-04-25T11:44:42.605Z,7.53
2023-04-25T11:47:10.882Z,6.57
2023-04-25T11:49:39.160Z,6.33
2023-04-25T11:52:09.425Z,4.87
2023-04-25T11:54:38.864Z,8.47
2023-04-25T11:57:08.419Z,6.77
2023-04-25T11:59:36.643Z,7.80
2023-04-25T12:02:04.798Z,6.33
2023-04-25T12:04:34.178Z,9.67
2023-04-25T12:07:03.350Z,8.10
2023-04-25T12:09:34.830Z,7.87
2023-04-25T12:12:04.672Z,5.73
2023-04-25T12:14:37.265Z,7.73
2023-04-25T12:17:08.907Z,6.50
2023-04-25T12:19:41.174Z,8.63
2023-04-25T12:22:23.502Z,4.30
2023-04-25T12:24:54.061Z,4.27
2023-04-25T12:27:23.372Z,7.65
2023-04-25T12:29:57.663Z,8.37
2023-04-25T12:32:26.070Z,7.60
2023-04-25T12:34:54.312Z,8.10
2023-04-25T12:37:22.464Z,8.77
2023-04-25T12:39:50.492Z,8.17
2023-04-25T12:42:18.571Z,4.93
2023-04-25T12:44:47.426Z,4.00
2023-04-25T12:47:16.936Z,7.57
2023-04-25T12:49:44.944Z,7.70
2023-04-25T12:52:12.946Z,5.50
2023-04-25T12:54:41.166Z,6.70
2023-04-25T12:57:09.239Z,4.20
2023-04-25T12:59:37.368Z,7.03
2023-04-25T13:02:05.695Z,4.27
2023-04-25T13:04:35.192Z,3.53
2023-04-25T13:07:03.330Z,5.80
2023-04-25T13:09:31.374Z,5.30
2023-04-25T13:11:59.863Z,5.70
2023-04-25T13:14:27.966Z,4.33
2023-04-25T13:16:56.139Z,5.77
2023-04-25T13:19:24.291Z,4.50
2023-04-25T13:21:53.694Z,4.97
2023-04-25T13:24:21.777Z,4.97
2023-04-25T13:26:49.831Z,7.03
2023-04-25T13:29:17.910Z,6.03
2023-04-25T13:31:46.014Z,5.43
2023-04-25T13:34:14.178Z,6.53
2023-04-25T13:36:42.302Z,4.60
2023-04-25T13:39:13.161Z,5.10
2023-04-25T13:41:41.380Z,5.73
2023-04-25T13:44:09.416Z,4.13
2023-04-25T13:46:46.350Z,3.73
2023-04-25T13:49:15.768Z,5.47
2023-04-25T13:51:44.163Z,6.10
2023-04-25T13:54:13.701Z,8.67
2023-04-25T13:56:43.087Z,3.57
2023-04-25T13:59:11.758Z,8.03
2023-04-25T14:01:39.879Z,6.17
2023-04-25T14:04:08.014Z,5.03
2023-04-25T14:06:37.461Z,5.83
2023-04-25T14:09:07.654Z,5.93
2023-04-25T14:11:37.128Z,6.37
2023-04-25T14:14:05.262Z,4.55
2023-04-25T14:16:33.690Z,3.30
2023-04-25T14:19:01.896Z,3.73
2023-04-25T14:21:32.581Z,3.90
2023-04-25T14:24:00.658Z,4.47
2023-04-25T14:26:28.736Z,4.03
2023-04-25T14:28:58.162Z,3.00
2023-04-25T14:31:26.246Z,4.43
2023-04-25T14:33:56.316Z,3.73
2023-04-25T14:36:27.309Z,4.83
2023-04-25T14:38:55.391Z,4.30
2023-04-25T14:41:24.054Z,4.53
2023-04-25T14:43:52.538Z,3.53
2023-04-25T14:46:24.214Z,3.33
2023-04-25T14:48:53.120Z,4.93
2023-04-25T14:51:21.490Z,4.13
2023-04-25T14:53:49.787Z,3.30
2023-04-25T14:56:18.024Z,3.13
2023-04-25T14:58:46.435Z,4.00
2023-04-25T15:01:14.967Z,3.13
2023-04-25T15:03:44.744Z,2.73
2023-04-25T15:06:12.944Z,2.43
2023-04-25T15:08:41.390Z,6.67
2023-04-25T15:11:09.473Z,4.03
2023-04-25T15:13:37.549Z,5.30
2023-04-25T15:16:06.975Z,3.10
2023-04-25T15:18:35.145Z,2.83
2023-04-25T15:21:05.492Z,2.80
2023-04-25T15:23:33.555Z,4.97
2023-04-25T15:26:01.572Z,3.80
2023-04-25T15:28:30.044Z,3.93
2023-04-25T15:30:58.398Z,4.27
2023-04-25T15:33:26.458Z,4.97
2023-04-25T15:35:54.546Z,4.67
2023-04-25T15:38:24.015Z,5.73
2023-04-25T15:40:53.647Z,5.37
2023-04-25T15:43:21.726Z,3.83
2023-04-25T15:45:49.768Z,3.73
2023-04-25T15:48:17.856Z,3.90
2023-04-25T15:50:46.369Z,1.83
2023-04-25T15:53:14.539Z,3.07
2023-04-25T15:55:44.562Z,7.00
2023-04-25T15:58:13.269Z,4.60
2023-04-25T16:00:41.646Z,3.43
2023-04-25T16:03:09.930Z,4.53
2023-04-25T16:05:38.479Z,3.40
2023-04-25T16:08:06.622Z,3.77
2023-04-25T16:10:34.804Z,3.00
2023-04-25T16:13:04.374Z,4.77
2023-04-25T16:15:34.635Z,1.90
2023-04-25T16:18:03.664Z,4.23
2023-04-25T16:20:31.858Z,4.67
2023-04-25T16:23:00.316Z,2.70
2023-04-25T16:25:28.447Z,2.60
2023-04-25T16:27:56.491Z,5.13
2023-04-25T16:30:26.256Z,5.03
2023-04-25T16:32:56.884Z,3.97
2023-04-25T16:35:25.496Z,4.50
2023-04-25T16:37:53.569Z,3.27
2023-04-25T16:40:22.023Z,4.53
2023-04-25T16:42:50.078Z,4.53
2023-04-25T16:45:20.136Z,6.10
2023-04-25T16:47:49.517Z,3.83
2023-04-25T16:50:19.915Z,5.43
2023-04-25T16:52:47.934Z,4.40
2023-04-25T16:55:15.950Z,3.53
2023-04-25T16:57:43.962Z,3.73
2023-04-25T17:00:13.723Z,5.10
2023-04-25T17:02:41.836Z,4.80
2023-04-25T17:05:11.996Z,4.00
2023-04-25T17:07:40.005Z,4.07
2023-04-25T17:10:09.422Z,6.27
2023-04-25T17:12:37.454Z,2.83
2023-04-25T17:15:07.016Z,2.53
2023-04-25T17:17:35.103Z,2.53
2023-04-25T17:20:05.921Z,4.27
2023-04-25T17:22:36.073Z,3.47
2023-04-25T17:25:04.433Z,4.07
2023-04-25T17:27:32.872Z,4.07
2023-04-25T17:30:02.316Z,3.27
2023-04-25T17:32:30.860Z,5.63
2023-04-25T17:35:00.222Z,4.23
2023-04-25T17:37:28.706Z,3.10
2023-04-25T17:39:58.327Z,3.23
2023-04-25T17:42:26.713Z,6.33
2023-04-25T17:44:55.604Z,3.57
2023-04-25T17:47:24.407Z,4.40
2023-04-25T17:49:52.525Z,3.47
2023-04-25T17:52:20.600Z,3.60
2023-04-25T17:54:49.714Z,3.50
2023-04-25T17:57:21.398Z,2.30
2023-04-25T17:59:49.474Z,4.43
2023-04-25T18:02:18.127Z,2.80
2023-04-25T18:04:46.855Z,6.53
2023-04-25T18:07:14.973Z,2.93
2023-04-25T18:09:43.188Z,3.77
2023-04-25T18:12:11.640Z,3.50
2023-04-25T18:14:41.198Z,1.77
2023-04-25T18:17:09.883Z,2.83
2023-04-25T18:19:38.035Z,4.17
2023-04-25T18:22:06.223Z,2.60
2023-04-25T18:24:34.302Z,3.20
2023-04-25T18:27:05.783Z,1.87
2023-04-25T18:29:34.282Z,3.93
2023-04-25T18:32:04.919Z,4.13
2023-04-25T18:34:34.051Z,3.40
2023-04-25T18:37:02.252Z,3.40
2023-04-25T18:39:30.455Z,2.90
2023-04-25T18:42:01.305Z,2.67
2023-04-25T18:44:33.841Z,3.03
2023-04-25T18:47:03.292Z,2.77
2023-04-25T18:49:32.499Z,3.30
2023-04-25T18:52:00.945Z,3.57
2023-04-25T18:54:29.006Z,3.77
2023-04-25T18:56:58.210Z,3.00
2023-04-25T18:59:26.332Z,3.93
2023-04-25T19:01:55.088Z,3.20
2023-04-25T19:04:24.687Z,2.33
2023-04-25T19:06:54.120Z,2.83
2023-04-25T19:09:22.225Z,2.20
2023-04-25T19:11:50.358Z,2.73
2023-04-25T19:14:18.565Z,3.23
2023-04-25T19:16:46.861Z,3.33
2023-04-25T19:19:14.992Z,2.30
2023-04-25T19:21:44.489Z,5.23
2023-04-25T19:24:12.690Z,1.77
2023-04-25T19:26:41.321Z,1.77
2023-04-25T19:29:12.156Z,3.53
2023-04-25T19:31:42.113Z,2.43
2023-04-25T19:34:10.390Z,3.93
2023-04-25T19:36:41.169Z,3.93
2023-04-25T19:39:11.253Z,2.57
2023-04-25T19:41:40.292Z,2.10
2023-04-25T19:44:10.579Z,2.70
2023-04-25T19:46:39.268Z,3.03
2023-04-25T19:49:08.176Z,2.60
2023-04-25T19:51:38.595Z,5.23
2023-04-25T19:54:07.103Z,3.27
2023-04-25T19:56:36.633Z,3.50
2023-04-25T19:59:04.739Z,3.07
2023-04-25T20:01:32.860Z,2.93
2023-04-25T20:04:01.552Z,3.70
2023-04-25T20:06:29.811Z,3.93
2023-04-25T20:08:57.886Z,6.03
2023-04-25T20:11:28.521Z,4.30
2023-04-25T20:13:58.009Z,2.70
2023-04-25T20:16:26.209Z,4.60
2023-04-25T20:18:55.247Z,3.63
2023-04-25T20:21:24.005Z,3.20
2023-04-25T20:23:52.118Z,4.73
2023-04-25T20:26:22.526Z,5.40
2023-04-25T20:28:51.339Z,3.10
2023-04-25T20:31:22.171Z,2.37
2023-04-25T20:33:50.530Z,2.93
2023-04-25T20:36:19.684Z,4.40
2023-04-25T20:38:47.954Z,3.67
2023-04-25T20:41:16.139Z,2.50
2023-04-25T20:43:44.418Z,5.00
2023-04-25T20:46:12.550Z,4.70
2023-04-25T20:48:42.036Z,3.57
2023-04-25T20:51:10.253Z,5.00
2023-04-25T20:53:38.365Z,4.07
2023-04-25T20:56:07.342Z,2.43
2023-04-25T20:58:35.398Z,4.17
2023-04-25T21:01:04.285Z,3.23
2023-04-25T21:03:32.773Z,3.07
2023-04-25T21:06:02.773Z,3.23
2023-04-25T21:08:31.025Z,3.00
2023-04-25T21:10:59.188Z,3.03
2023-04-25T21:13:28.923Z,3.80
2023-04-25T21:15:58.001Z,5.60
2023-04-25T21:18:26.847Z,5.63
2023-04-25T21:20:55.004Z,3.57
2023-04-25T21:23:24.646Z,2.33
2023-04-25T21:25:54.087Z,3.07
2023-04-25T21:28:23.275Z,4.03
2023-04-25T21:30:51.545Z,2.87
2023-04-25T21:33:19.875Z,4.53
2023-04-25T21:35:48.128Z,2.37
2023-04-25T21:38:16.329Z,2.90
2023-04-25T21:40:46.877Z,3.53
2023-04-25T21:43:14.944Z,2.83
2023-04-25T21:45:57.341Z,4.67
2023-04-25T21:48:31.466Z,3.20
2023-04-25T21:50:59.743Z,4.17
2023-04-25T21:53:27.855Z,3.97
2023-04-25T21:55:57.327Z,4.33
2023-04-25T21:58:25.605Z,4.50
2023-04-25T22:00:53.778Z,5.23
2023-04-25T22:03:21.928Z,5.67
2023-04-25T22:05:50.129Z,6.20
2023-04-25T22:08:18.251Z,3.63
2023-04-25T22:10:46.359Z,5.30
2023-04-25T22:13:16.285Z,3.43
2023-04-25T22:15:44.910Z,2.80
2023-04-25T22:18:14.206Z,3.17
2023-04-25T22:20:44.012Z,3.50
2023-04-25T22:23:12.930Z,3.30
2023-04-25T22:25:41.995Z,5.03
2023-04-25T22:28:10.687Z,2.70
2023-04-25T22:30:40.192Z,5.60
2023-04-25T22:33:08.368Z,5.47
2023-04-25T22:35:36.616Z,4.73
2023-04-25T22:38:04.792Z,4.80
2023-04-25T22:40:32.926Z,3.80
2023-04-25T22:43:01.044Z,3.93
2023-04-25T22:45:29.358Z,2.93
2023-04-25T22:47:59.396Z,3.47
2023-04-25T22:50:27.751Z,4.40
2023-04-25T22:52:56.052Z,2.80
2023-04-25T22:55:24.641Z,4.43
2023-04-25T22:57:53.136Z,3.53
2023-04-25T23:00:22.073Z,2.73
2023-04-25T23:02:50.833Z,2.90
2023-04-25T23:05:20.624Z,4.57
2023-04-25T23:07:49.306Z,4.30
2023-04-25T23:10:18.725Z,4.30
2023-04-25T23:12:46.863Z,6.93
2023-04-25T23:15:15.204Z,3.20
2023-04-25T23:17:43.383Z,4.77
2023-04-25T23:20:13.278Z,2.87
2023-04-25T23:22:42.688Z,3.93
2023-04-25T23:25:11.792Z,3.80
2023-04-25T23:27:39.889Z,3.33
2023-04-25T23:30:10.556Z,4.70
2023-04-25T23:32:39.468Z,5.67
2023-04-25T23:35:09.960Z,5.50
2023-04-25T23:37:39.381Z,4.27
2023-04-25T23:40:12.060Z,3.77
2023-04-25T23:42:42.773Z,4.57
2023-04-25T23:45:11.434Z,4.67
2023-04-25T23:47:39.627Z,3.57
2023-04-25T23:50:09.577Z,3.87
2023-04-25T23:52:37.913Z,5.33
2023-04-25T23:55:09.747Z,3.13
2023-04-25T23:57:38.011Z,4.87
